createdAt,value
2023-04-10T00:00:39.335Z,27.67
2023-04-10T00:01:40.938Z,25.43
2023-04-10T00:02:42.857Z,24.27
2023-04-10T00:03:44.774Z,25.93
2023-04-10T00:04:46.839Z,26.53
2023-04-10T00:05:48.434Z,23.53
2023-04-10T00:06:50.047Z,26.23
2023-04-10T00:07:51.687Z,25.63
2023-04-10T00:08:53.212Z,27.87
2023-04-10T00:09:55.033Z,26.17
2023-04-10T00:10:57.100Z,25.77
2023-04-10T00:11:59.485Z,27.57
2023-04-10T00:13:03.437Z,28.53
2023-04-10T00:14:04.971Z,25.27
2023-04-10T00:15:07.194Z,26.13
2023-04-10T00:16:08.899Z,28.33
2023-04-10T00:17:10.709Z,27.37
2023-04-10T00:18:12.739Z,24.70
2023-04-10T00:19:14.349Z,26.50
2023-04-10T00:20:16.299Z,26.13
2023-04-10T00:21:18.049Z,25.30
2023-04-10T00:22:19.578Z,27.27
2023-04-10T00:23:21.327Z,27.47
2023-04-10T00:24:22.876Z,29.17
2023-04-10T00:25:24.465Z,26.47
2023-04-10T00:26:26.903Z,29.20
2023-04-10T00:27:28.448Z,29.73
2023-04-10T00:28:30.280Z,26.00
2023-04-10T00:29:31.825Z,26.90
2023-04-10T00:30:33.414Z,26.83
2023-04-10T00:31:35.030Z,24.33
2023-04-10T00:32:36.716Z,25.77
2023-04-10T00:33:38.309Z,25.70
2023-04-10T00:34:39.854Z,27.13
2023-04-10T00:35:41.431Z,27.37
2023-04-10T00:36:43.048Z,24.53
2023-04-10T00:37:44.638Z,27.87
2023-04-10T00:38:46.613Z,28.20
2023-04-10T00:39:48.184Z,29.97
2023-04-10T00:40:49.829Z,32.70
2023-04-10T00:41:51.325Z,30.93
2023-04-10T00:42:53.144Z,32.60
2023-04-10T00:43:57.921Z,32.90
2023-04-10T00:45:00.288Z,28.17
2023-04-10T00:46:01.899Z,29.47
2023-04-10T00:47:07.612Z,25.70
2023-04-10T00:48:09.210Z,26.43
2023-04-10T00:49:10.886Z,29.73
2023-04-10T00:50:12.710Z,27.33
2023-04-10T00:51:14.533Z,28.10
2023-04-10T00:52:16.616Z,26.80
2023-04-10T00:53:18.219Z,28.50
2023-04-10T00:54:20.251Z,28.93
2023-04-10T00:55:21.864Z,30.90
2023-04-10T00:56:24.946Z,27.77
2023-04-10T00:57:27.115Z,24.73
2023-04-10T00:58:28.747Z,24.77
2023-04-10T00:59:31.590Z,21.10
2023-04-10T01:00:33.167Z,18.87
2023-04-10T01:01:34.784Z,20.53
2023-04-10T01:02:36.619Z,19.63
2023-04-10T01:03:40.137Z,21.03
2023-04-10T01:04:42.219Z,18.67
2023-04-10T01:05:52.315Z,19.00
2023-04-10T01:06:59.305Z,19.07
2023-04-10T01:08:13.538Z,18.07
2023-04-10T01:09:32.796Z,17.03
2023-04-10T01:10:42.862Z,15.93
2023-04-10T01:11:50.597Z,17.47
2023-04-10T01:12:56.145Z,15.00
2023-04-10T01:14:19.390Z,17.50
2023-04-10T01:15:23.659Z,17.70
2023-04-10T01:16:33.720Z,15.67
2023-04-10T01:17:54.851Z,17.53
2023-04-10T01:19:31.266Z,14.73
2023-04-10T01:20:37.562Z,16.57
2023-04-10T01:21:41.548Z,21.03
2023-04-10T01:23:04.550Z,21.53
2023-04-10T01:24:06.249Z,20.10
2023-04-10T01:25:10.823Z,20.07
2023-04-10T01:26:17.346Z,24.37
2023-04-10T01:27:44.282Z,23.97
2023-04-10T01:28:56.942Z,25.27
2023-04-10T01:30:01.539Z,22.07
2023-04-10T01:31:06.611Z,21.40
2023-04-10T01:32:18.852Z,22.63
2023-04-10T01:33:22.750Z,21.53
2023-04-10T01:34:32.561Z,23.40
2023-04-10T01:35:35.860Z,20.23
2023-04-10T01:36:45.628Z,24.77
2023-04-10T01:37:50.641Z,18.13
2023-04-10T01:38:54.926Z,21.70
2023-04-10T01:40:02.856Z,19.33
2023-04-10T01:41:06.301Z,18.00
2023-04-10T01:42:10.758Z,19.47
2023-04-10T01:43:13.139Z,15.50
2023-04-10T01:44:16.062Z,17.13
2023-04-10T01:45:22.004Z,18.30
2023-04-10T01:46:25.189Z,18.23
2023-04-10T01:47:28.015Z,19.63
2023-04-10T01:48:30.212Z,17.53
2023-04-10T01:49:33.006Z,18.77
2023-04-10T01:50:36.014Z,18.17
2023-04-10T01:51:37.777Z,17.07
2023-04-10T01:52:40.614Z,16.67
2023-04-10T01:53:44.709Z,17.27
2023-04-10T01:54:48.527Z,17.57
2023-04-10T01:55:52.325Z,17.60
2023-04-10T01:56:54.016Z,17.13
2023-04-10T01:57:56.508Z,16.97
2023-04-10T01:58:58.468Z,16.80
2023-04-10T02:00:00.069Z,20.70
2023-04-10T02:01:01.944Z,17.53
2023-04-10T02:02:04.852Z,16.90
2023-04-10T02:03:06.796Z,18.87
2023-04-10T02:04:08.673Z,22.40
2023-04-10T02:05:11.033Z,21.30
2023-04-10T02:06:27.975Z,19.90
2023-04-10T02:07:42.736Z,21.20
2023-04-10T02:08:55.595Z,18.30
2023-04-10T02:10:07.412Z,20.00
2023-04-10T02:11:15.492Z,20.10
2023-04-10T02:12:22.722Z,18.30
2023-04-10T02:13:27.837Z,16.90
2023-04-10T02:14:32.315Z,16.70
2023-04-10T02:15:35.689Z,17.83
2023-04-10T02:16:39.156Z,18.87
2023-04-10T02:17:40.952Z,17.30
2023-04-10T02:18:43.590Z,18.00
2023-04-10T02:19:48.387Z,16.57
2023-04-10T02:20:50.550Z,17.43
2023-04-10T02:21:52.297Z,16.67
2023-04-10T02:22:54.408Z,17.00
2023-04-10T02:23:59.620Z,16.43
2023-04-10T02:25:04.640Z,18.03
2023-04-10T02:26:09.986Z,15.90
2023-04-10T02:27:11.564Z,16.47
2023-04-10T02:28:13.111Z,17.47
2023-04-10T02:29:15.080Z,16.63
2023-04-10T02:30:16.656Z,15.73
2023-04-10T02:31:18.344Z,15.37
2023-04-10T02:32:20.113Z,15.33
2023-04-10T02:33:21.686Z,15.50
2023-04-10T02:34:23.226Z,15.73
2023-04-10T02:35:24.967Z,15.43
2023-04-10T02:36:26.484Z,19.10
2023-04-10T02:37:27.978Z,21.50
2023-04-10T02:38:29.512Z,20.83
2023-04-10T02:39:31.026Z,18.10
2023-04-10T02:40:32.710Z,16.97
2023-04-10T02:41:34.248Z,19.27
2023-04-10T02:42:35.883Z,17.07
2023-04-10T02:43:37.453Z,17.63
2023-04-10T02:44:39.676Z,17.43
2023-04-10T02:45:41.900Z,16.77
2023-04-10T02:46:43.590Z,12.27
2023-04-10T02:47:45.221Z,14.10
2023-04-10T02:48:47.654Z,13.97
2023-04-10T02:49:49.170Z,12.63
2023-04-10T02:50:56.579Z,12.97
2023-04-10T02:51:58.188Z,12.67
2023-04-10T02:52:59.780Z,14.37
2023-04-10T02:54:01.283Z,14.83
2023-04-10T02:55:02.835Z,15.73
2023-04-10T02:56:06.659Z,16.03
2023-04-10T02:57:08.403Z,14.67
2023-04-10T02:58:09.943Z,14.70
2023-04-10T02:59:13.344Z,16.40
2023-04-10T03:00:15.673Z,15.90
2023-04-10T03:01:17.313Z,16.10
2023-04-10T03:02:18.958Z,15.43
2023-04-10T03:03:20.777Z,18.27
2023-04-10T03:04:22.697Z,18.87
2023-04-10T03:05:24.303Z,18.80
2023-04-10T03:06:28.657Z,19.70
2023-04-10T03:07:30.219Z,19.00
2023-04-10T03:08:31.785Z,22.80
2023-04-10T03:09:33.294Z,20.97
2023-04-10T03:10:34.858Z,21.00
2023-04-10T03:11:36.441Z,21.50
2023-04-10T03:12:38.022Z,17.30
2023-04-10T03:13:39.554Z,20.30
2023-04-10T03:14:41.467Z,18.77
2023-04-10T03:15:43.587Z,20.67
2023-04-10T03:16:45.347Z,18.90
2023-04-10T03:17:47.513Z,19.13
2023-04-10T03:18:49.088Z,19.97
2023-04-10T03:19:50.692Z,19.60
2023-04-10T03:20:52.253Z,17.97
2023-04-10T03:21:53.889Z,18.27
2023-04-10T03:22:55.722Z,21.00
2023-04-10T03:23:57.347Z,19.93
2023-04-10T03:24:59.064Z,19.60
2023-04-10T03:26:00.793Z,21.70
2023-04-10T03:27:02.352Z,19.63
2023-04-10T03:28:03.973Z,18.27
2023-04-10T03:29:05.484Z,18.30
2023-04-10T03:30:07.863Z,19.17
2023-04-10T03:31:10.721Z,18.80
2023-04-10T03:32:12.334Z,16.33
2023-04-10T03:33:14.106Z,21.03
2023-04-10T03:34:15.712Z,16.40
2023-04-10T03:35:17.260Z,17.00
2023-04-10T03:36:18.940Z,16.17
2023-04-10T03:37:20.642Z,15.73
2023-04-10T03:38:22.148Z,17.00
2023-04-10T03:39:24.738Z,15.87
2023-04-10T03:40:26.355Z,16.50
2023-04-10T03:41:27.920Z,14.70
2023-04-10T03:42:29.619Z,14.30
2023-04-10T03:43:31.571Z,14.23
2023-04-10T03:44:34.260Z,15.17
2023-04-10T03:45:35.884Z,17.07
2023-04-10T03:46:37.463Z,16.70
2023-04-10T03:47:39.075Z,14.43
2023-04-10T03:48:41.341Z,14.80
2023-04-10T03:49:42.899Z,13.53
2023-04-10T03:50:44.582Z,14.47
2023-04-10T03:51:46.317Z,14.63
2023-04-10T03:52:49.795Z,13.83
2023-04-10T03:53:51.539Z,15.53
2023-04-10T03:54:53.354Z,13.93
2023-04-10T03:55:54.994Z,14.73
2023-04-10T03:56:57.189Z,13.77
2023-04-10T03:57:58.715Z,14.37
2023-04-10T03:59:00.251Z,14.97
2023-04-10T04:00:02.798Z,13.87
2023-04-10T04:01:05.452Z,13.87
2023-04-10T04:02:07.762Z,13.87
2023-04-10T04:03:09.776Z,15.73
2023-04-10T04:04:11.583Z,13.37
2023-04-10T04:05:13.409Z,16.77
2023-04-10T04:06:14.963Z,14.00
2023-04-10T04:07:16.515Z,14.40
2023-04-10T04:08:18.283Z,16.37
2023-04-10T04:09:19.840Z,15.43
2023-04-10T04:10:21.372Z,16.23
2023-04-10T04:11:22.940Z,19.27
2023-04-10T04:12:24.470Z,17.47
2023-04-10T04:13:26.006Z,18.73
2023-04-10T04:14:27.571Z,18.80
2023-04-10T04:15:29.117Z,20.20
2023-04-10T04:16:30.768Z,16.97
2023-04-10T04:17:32.586Z,16.47
2023-04-10T04:18:34.159Z,17.17
2023-04-10T04:19:35.847Z,18.30
2023-04-10T04:20:37.382Z,20.17
2023-04-10T04:21:38.922Z,21.13
2023-04-10T04:22:41.545Z,23.47
2023-04-10T04:23:43.138Z,22.53
2023-04-10T04:24:44.723Z,24.20
2023-04-10T04:25:46.272Z,23.73
2023-04-10T04:26:47.808Z,24.57
2023-04-10T04:27:49.339Z,22.13
2023-04-10T04:28:51.131Z,22.83
2023-04-10T04:29:52.673Z,24.57
2023-04-10T04:30:54.176Z,22.00
2023-04-10T04:31:55.885Z,23.70
2023-04-10T04:32:57.448Z,23.13
2023-04-10T04:33:59.995Z,21.90
2023-04-10T04:35:01.574Z,22.70
2023-04-10T04:36:03.248Z,23.67
2023-04-10T04:37:05.609Z,21.27
2023-04-10T04:38:07.157Z,22.33
2023-04-10T04:39:08.683Z,27.33
2023-04-10T04:40:10.800Z,22.67
2023-04-10T04:41:12.438Z,23.43
2023-04-10T04:42:13.996Z,20.83
2023-04-10T04:43:15.733Z,24.17
2023-04-10T04:44:19.683Z,21.10
2023-04-10T04:45:21.957Z,20.93
2023-04-10T04:46:23.597Z,19.40
2023-04-10T04:47:25.339Z,20.63
2023-04-10T04:48:26.999Z,20.50
2023-04-10T04:49:28.573Z,19.40
2023-04-10T04:50:30.300Z,19.20
2023-04-10T04:51:31.850Z,19.63
2023-04-10T04:52:35.371Z,19.60
2023-04-10T04:53:37.025Z,20.53
2023-04-10T04:54:38.560Z,20.83
2023-04-10T04:55:40.970Z,21.63
2023-04-10T04:56:42.520Z,20.03
2023-04-10T04:57:44.054Z,20.60
2023-04-10T04:58:45.692Z,20.17
2023-04-10T04:59:47.248Z,20.90
2023-04-10T05:00:48.789Z,23.10
2023-04-10T05:01:50.452Z,18.53
2023-04-10T05:02:53.389Z,19.20
2023-04-10T05:03:56.162Z,24.17
2023-04-10T05:04:58.249Z,20.50
2023-04-10T05:05:59.877Z,22.90
2023-04-10T05:07:01.585Z,22.67
2023-04-10T05:08:03.269Z,18.00
2023-04-10T05:09:04.856Z,20.80
2023-04-10T05:10:07.012Z,20.13
2023-04-10T05:11:11.004Z,18.67
2023-04-10T05:12:12.724Z,20.40
2023-04-10T05:13:15.763Z,21.87
2023-04-10T05:14:17.357Z,19.47
2023-04-10T05:15:18.986Z,20.63
2023-04-10T05:16:20.636Z,22.07
2023-04-10T05:17:22.226Z,21.17
2023-04-10T05:18:23.982Z,20.37
2023-04-10T05:19:25.713Z,23.27
2023-04-10T05:20:27.340Z,21.87
2023-04-10T05:21:28.917Z,18.77
2023-04-10T05:22:31.139Z,22.37
2023-04-10T05:23:32.669Z,20.17
2023-04-10T05:24:34.410Z,21.23
2023-04-10T05:25:36.403Z,21.87
2023-04-10T05:26:38.114Z,22.10
2023-04-10T05:27:39.742Z,20.63
2023-04-10T05:28:41.292Z,25.70
2023-04-10T05:29:42.816Z,22.20
2023-04-10T05:30:44.930Z,22.87
2023-04-10T05:31:46.749Z,23.73
2023-04-10T05:32:48.372Z,21.63
2023-04-10T05:33:49.948Z,22.83
2023-04-10T05:34:51.550Z,21.97
2023-04-10T05:35:53.583Z,21.70
2023-04-10T05:36:57.509Z,24.87
2023-04-10T05:38:00.855Z,20.77
2023-04-10T05:39:02.458Z,22.13
2023-04-10T05:40:05.041Z,23.03
2023-04-10T05:41:06.666Z,21.77
2023-04-10T05:42:08.266Z,21.30
2023-04-10T05:43:09.838Z,21.37
2023-04-10T05:44:11.432Z,21.80
2023-04-10T05:45:14.876Z,22.83
2023-04-10T05:46:16.535Z,21.17
2023-04-10T05:47:18.179Z,20.77
2023-04-10T05:48:19.735Z,18.67
2023-04-10T05:49:21.377Z,20.17
2023-04-10T05:50:23.181Z,20.23
2023-04-10T05:51:24.799Z,19.73
2023-04-10T05:52:26.383Z,22.90
2023-04-10T05:53:33.637Z,20.73
2023-04-10T05:54:36.255Z,21.77
2023-04-10T05:55:38.473Z,24.10
2023-04-10T05:56:40.051Z,21.70
2023-04-10T05:57:41.564Z,19.00
2023-04-10T05:58:43.127Z,20.60
2023-04-10T05:59:44.652Z,21.13
2023-04-10T06:00:46.741Z,22.67
2023-04-10T06:01:48.326Z,22.00
2023-04-10T06:02:49.986Z,22.83
2023-04-10T06:04:22.245Z,21.13
2023-04-10T06:05:23.958Z,19.17
2023-04-10T06:06:26.352Z,18.83
2023-04-10T06:07:28.778Z,18.80
2023-04-10T06:08:30.760Z,21.23
2023-04-10T06:09:32.398Z,17.70
2023-04-10T06:10:33.980Z,17.60
2023-04-10T06:11:35.584Z,18.17
2023-04-10T06:12:37.203Z,16.93
2023-04-10T06:13:38.852Z,19.13
2023-04-10T06:14:40.519Z,18.53
2023-04-10T06:15:42.170Z,18.20
2023-04-10T06:16:43.813Z,17.63
2023-04-10T06:17:45.358Z,18.50
2023-04-10T06:18:47.813Z,18.03
2023-04-10T06:19:49.456Z,18.33
2023-04-10T06:20:51.058Z,19.50
2023-04-10T06:21:54.510Z,18.70
2023-04-10T06:22:56.973Z,17.57
2023-04-10T06:23:58.548Z,18.70
2023-04-10T06:25:00.379Z,17.67
2023-04-10T06:26:03.468Z,17.47
2023-04-10T06:27:05.038Z,17.50
2023-04-10T06:28:06.637Z,19.90
2023-04-10T06:29:08.289Z,18.70
2023-04-10T06:30:10.489Z,17.50
2023-04-10T06:31:12.564Z,16.07
2023-04-10T06:32:14.226Z,17.90
2023-04-10T06:33:16.374Z,16.87
2023-04-10T06:34:18.183Z,17.17
2023-04-10T06:35:19.780Z,17.07
2023-04-10T06:36:21.696Z,18.67
2023-04-10T06:37:33.197Z,20.33
2023-04-10T06:38:37.741Z,18.93
2023-04-10T06:39:39.440Z,19.40
2023-04-10T06:40:41.632Z,22.17
2023-04-10T06:41:43.188Z,22.00
2023-04-10T06:42:44.771Z,19.87
2023-04-10T06:43:46.363Z,22.77
2023-04-10T06:44:47.881Z,21.40
2023-04-10T06:45:49.458Z,20.47
2023-04-10T06:46:51.005Z,18.53
2023-04-10T06:47:52.826Z,19.53
2023-04-10T06:48:54.592Z,19.33
2023-04-10T06:49:56.242Z,18.00
2023-04-10T06:51:00.492Z,16.70
2023-04-10T06:52:02.068Z,18.50
2023-04-10T06:53:03.594Z,19.67
2023-04-10T06:54:05.508Z,17.07
2023-04-10T06:55:07.671Z,16.97
2023-04-10T06:56:09.556Z,17.23
2023-04-10T06:57:11.141Z,17.60
2023-04-10T06:58:12.735Z,13.97
2023-04-10T06:59:14.300Z,16.50
2023-04-10T07:00:16.275Z,16.40
2023-04-10T07:01:17.968Z,17.90
2023-04-10T07:02:19.684Z,20.60
2023-04-10T07:03:21.469Z,23.60
2023-04-10T07:04:22.998Z,20.77
2023-04-10T07:05:24.608Z,21.53
2023-04-10T07:06:27.077Z,25.77
2023-04-10T07:07:29.282Z,23.07
2023-04-10T07:08:30.852Z,24.10
2023-04-10T07:09:32.388Z,21.30
2023-04-10T07:10:33.903Z,26.03
2023-04-10T07:11:35.514Z,22.60
2023-04-10T07:12:37.016Z,22.80
2023-04-10T07:13:40.203Z,20.33
2023-04-10T07:14:42.343Z,21.50
2023-04-10T07:15:43.936Z,21.13
2023-04-10T07:16:45.596Z,23.43
2023-04-10T07:17:48.376Z,20.07
2023-04-10T07:18:49.934Z,21.97
2023-04-10T07:19:51.480Z,22.03
2023-04-10T07:20:54.051Z,22.27
2023-04-10T07:21:55.690Z,19.70
2023-04-10T07:22:57.221Z,22.83
2023-04-10T07:23:58.729Z,23.90
2023-04-10T07:25:00.538Z,21.53
2023-04-10T07:26:02.098Z,22.07
2023-04-10T07:27:05.900Z,21.30
2023-04-10T07:28:07.479Z,19.53
2023-04-10T07:29:09.434Z,24.87
2023-04-10T07:30:13.561Z,20.80
2023-04-10T07:31:15.688Z,22.67
2023-04-10T07:32:17.868Z,23.87
2023-04-10T07:33:19.713Z,22.73
2023-04-10T07:34:21.449Z,24.20
2023-04-10T07:35:23.041Z,21.60
2023-04-10T07:36:24.631Z,21.10
2023-04-10T07:37:26.531Z,21.37
2023-04-10T07:38:28.202Z,21.17
2023-04-10T07:39:29.777Z,21.80
2023-04-10T07:40:31.348Z,19.53
2023-04-10T07:41:33.018Z,18.70
2023-04-10T07:42:34.600Z,20.23
2023-04-10T07:43:36.401Z,21.00
2023-04-10T07:44:37.991Z,20.23
2023-04-10T07:45:39.560Z,18.93
2023-04-10T07:46:41.774Z,17.07
2023-04-10T07:47:43.360Z,17.70
2023-04-10T07:48:44.902Z,21.47
2023-04-10T07:49:46.446Z,16.90
2023-04-10T07:50:48.210Z,17.97
2023-04-10T07:51:49.729Z,16.93
2023-04-10T07:52:51.331Z,20.57
2023-04-10T07:53:53.049Z,20.13
2023-04-10T07:54:54.663Z,19.40
2023-04-10T07:55:56.513Z,19.10
2023-04-10T07:56:58.029Z,22.47
2023-04-10T07:58:00.246Z,20.00
2023-04-10T07:59:02.905Z,21.50
2023-04-10T08:00:04.911Z,18.93
2023-04-10T08:01:06.972Z,22.30
2023-04-10T08:02:08.618Z,20.30
2023-04-10T08:03:11.759Z,22.57
2023-04-10T08:04:13.628Z,21.23
2023-04-10T08:05:15.746Z,20.90
2023-04-10T08:06:17.415Z,26.67
2023-04-10T08:07:22.116Z,19.73
2023-04-10T08:08:23.680Z,17.40
2023-04-10T08:09:25.394Z,19.10
2023-04-10T08:10:26.905Z,20.27
2023-04-10T08:11:35.201Z,18.97
2023-04-10T08:12:38.189Z,19.03
2023-04-10T08:13:39.739Z,19.13
2023-04-10T08:14:41.404Z,17.83
2023-04-10T08:15:43.050Z,18.17
2023-04-10T08:16:44.652Z,21.10
2023-04-10T08:17:46.325Z,17.70
2023-04-10T08:18:47.920Z,21.60
2023-04-10T08:19:49.474Z,17.63
2023-04-10T08:20:51.005Z,20.63
2023-04-10T08:21:52.560Z,17.33
2023-04-10T08:22:55.261Z,18.23
2023-04-10T08:24:00.403Z,19.17
2023-04-10T08:25:01.941Z,16.40
2023-04-10T08:26:03.655Z,16.80
2023-04-10T08:27:05.252Z,19.17
2023-04-10T08:28:06.890Z,13.73
2023-04-10T08:29:08.511Z,14.03
2023-04-10T08:30:10.522Z,12.43
2023-04-10T08:31:12.119Z,13.80
2023-04-10T08:32:13.746Z,14.13
2023-04-10T08:33:15.592Z,12.57
2023-04-10T08:34:17.197Z,10.70
2023-04-10T08:35:18.888Z,13.70
2023-04-10T08:36:20.733Z,11.77
2023-04-10T08:37:22.649Z,15.40
2023-04-10T08:38:27.494Z,12.30
2023-04-10T08:39:29.056Z,12.03
2023-04-10T08:40:30.664Z,9.77
2023-04-10T08:41:32.271Z,12.63
2023-04-10T08:42:34.623Z,9.33
2023-04-10T08:43:37.288Z,10.83
2023-04-10T08:44:39.883Z,10.30
2023-04-10T08:45:41.765Z,10.03
2023-04-10T08:46:45.289Z,9.37
2023-04-10T08:47:50.126Z,11.53
2023-04-10T08:49:17.277Z,9.80
2023-04-10T08:50:20.279Z,11.63
2023-04-10T08:51:26.691Z,9.03
2023-04-10T08:52:31.560Z,11.17
2023-04-10T08:53:36.940Z,10.43
2023-04-10T08:54:41.527Z,12.47
2023-04-10T08:55:44.447Z,10.97
2023-04-10T08:56:51.217Z,9.87
2023-04-10T08:58:00.431Z,10.03
2023-04-10T08:59:03.652Z,11.03
2023-04-10T09:00:19.846Z,9.13
2023-04-10T09:01:21.774Z,9.60
2023-04-10T09:02:24.933Z,8.87
2023-04-10T09:03:27.794Z,9.77
2023-04-10T09:04:29.715Z,8.37
2023-04-10T09:05:31.613Z,9.73
2023-04-10T09:06:33.183Z,9.77
2023-04-10T09:07:34.702Z,8.03
2023-04-10T09:08:36.459Z,7.70
2023-04-10T09:09:38.038Z,7.17
2023-04-10T09:10:39.647Z,7.10
2023-04-10T09:11:56.513Z,7.83
2023-04-10T09:12:58.068Z,8.07
2023-04-10T09:13:59.575Z,7.87
2023-04-10T09:15:01.047Z,7.60
2023-04-10T09:16:02.956Z,8.73
2023-04-10T09:17:21.636Z,8.03
2023-04-10T09:18:40.260Z,8.00
2023-04-10T09:19:42.413Z,7.37
2023-04-10T09:20:44.046Z,8.03
2023-04-10T09:21:50.770Z,11.90
2023-04-10T09:22:52.931Z,9.00
2023-04-10T09:24:01.284Z,9.47
2023-04-10T09:25:04.254Z,10.37
2023-04-10T09:26:29.328Z,10.47
2023-04-10T09:27:35.996Z,8.30
2023-04-10T09:28:56.584Z,8.53
2023-04-10T09:29:58.730Z,10.33
2023-04-10T09:31:00.340Z,10.03
2023-04-10T09:32:01.996Z,11.57
2023-04-10T09:33:20.746Z,12.83
2023-04-10T09:34:23.382Z,10.83
2023-04-10T09:35:36.836Z,10.97
2023-04-10T09:36:38.638Z,11.93
2023-04-10T09:37:42.363Z,11.33
2023-04-10T09:38:51.576Z,10.97
2023-04-10T09:39:53.280Z,12.33
2023-04-10T09:41:07.051Z,10.90
2023-04-10T09:42:09.668Z,10.77
2023-04-10T09:43:19.202Z,10.50
2023-04-10T09:44:41.510Z,9.23
2023-04-10T09:45:51.668Z,9.77
2023-04-10T09:46:54.039Z,13.07
2023-04-10T09:48:04.166Z,12.47
2023-04-10T09:49:07.437Z,10.97
2023-04-10T09:50:09.079Z,10.23
2023-04-10T09:51:29.759Z,11.13
2023-04-10T09:52:34.685Z,10.13
2023-04-10T09:53:49.682Z,11.63
2023-04-10T09:54:52.210Z,11.70
2023-04-10T09:55:55.075Z,10.60
2023-04-10T09:56:57.604Z,10.03
2023-04-10T09:58:00.347Z,8.50
2023-04-10T09:59:04.685Z,8.80
2023-04-10T10:00:09.568Z,10.80
2023-04-10T10:01:12.731Z,9.70
2023-04-10T10:02:16.449Z,10.73
2023-04-10T10:03:21.155Z,11.73
2023-04-10T10:04:23.702Z,11.60
2023-04-10T10:05:30.505Z,9.50
2023-04-10T10:06:33.213Z,9.07
2023-04-10T10:07:35.879Z,8.40
2023-04-10T10:08:37.631Z,9.27
2023-04-10T10:09:39.675Z,7.80
2023-04-10T10:11:03.356Z,8.03
2023-04-10T10:12:06.873Z,9.80
2023-04-10T10:13:10.413Z,8.17
2023-04-10T10:14:17.597Z,7.13
2023-04-10T10:15:46.840Z,6.83
2023-04-10T10:16:57.123Z,6.53
2023-04-10T10:18:17.912Z,8.67
2023-04-10T10:19:24.760Z,6.53
2023-04-10T10:20:27.512Z,5.73
2023-04-10T10:21:30.743Z,8.40
2023-04-10T10:22:32.783Z,8.77
2023-04-10T10:23:35.048Z,9.30
2023-04-10T10:24:40.112Z,9.43
2023-04-10T10:25:42.786Z,9.40
2023-04-10T10:26:45.349Z,8.60
2023-04-10T10:27:49.645Z,8.23
2023-04-10T10:28:55.154Z,8.33
2023-04-10T10:30:00.950Z,7.80
2023-04-10T10:31:04.856Z,7.43
2023-04-10T10:32:08.360Z,8.07
2023-04-10T10:33:11.086Z,8.40
2023-04-10T10:34:13.562Z,8.37
2023-04-10T10:35:17.122Z,9.07
2023-04-10T10:36:20.458Z,7.50
2023-04-10T10:37:22.078Z,7.50
2023-04-10T10:38:23.764Z,6.73
2023-04-10T10:39:34.272Z,7.27
2023-04-10T10:40:49.260Z,7.63
2023-04-10T10:42:15.651Z,9.23
2023-04-10T10:43:35.499Z,7.07
2023-04-10T10:44:53.862Z,8.27
2023-04-10T10:46:04.787Z,6.67
2023-04-10T10:47:06.348Z,6.83
2023-04-10T10:48:08.167Z,5.93
2023-04-10T10:49:09.797Z,6.13
2023-04-10T10:50:11.432Z,6.20
2023-04-10T10:51:13.044Z,6.47
2023-04-10T10:52:14.661Z,6.17
2023-04-10T10:53:37.137Z,5.90
2023-04-10T10:54:47.202Z,5.87
2023-04-10T10:55:55.250Z,7.43
2023-04-10T10:56:56.853Z,5.80
2023-04-10T10:58:03.656Z,5.50
2023-04-10T10:59:05.357Z,6.53
2023-04-10T11:00:07.646Z,6.10
2023-04-10T11:01:10.558Z,5.80
2023-04-10T11:02:17.669Z,6.10
2023-04-10T11:03:19.484Z,8.10
2023-04-10T11:04:51.330Z,7.13
2023-04-10T11:05:58.718Z,7.43
2023-04-10T11:07:00.311Z,7.53
2023-04-10T11:08:02.034Z,7.37
2023-04-10T11:09:03.622Z,7.83
2023-04-10T11:10:05.631Z,6.00
2023-04-10T11:11:08.076Z,6.20
2023-04-10T11:12:09.617Z,5.87
2023-04-10T11:13:18.426Z,6.37
2023-04-10T11:14:20.367Z,6.90
2023-04-10T11:15:25.936Z,6.37
2023-04-10T11:16:31.460Z,7.03
2023-04-10T11:17:54.361Z,6.67
2023-04-10T11:19:14.246Z,6.20
2023-04-10T11:20:18.474Z,6.07
2023-04-10T11:21:22.417Z,6.20
2023-04-10T11:22:23.940Z,6.43
2023-04-10T11:23:25.497Z,6.33
2023-04-10T11:24:27.116Z,5.50
2023-04-10T11:25:51.968Z,8.90
2023-04-10T11:26:53.565Z,5.70
2023-04-10T11:27:55.167Z,6.03
2023-04-10T11:28:56.954Z,6.40
2023-04-10T11:29:59.412Z,6.47
2023-04-10T11:31:19.707Z,6.80
2023-04-10T11:32:21.457Z,6.03
2023-04-10T11:33:23.065Z,6.43
2023-04-10T11:34:24.851Z,5.77
2023-04-10T11:35:28.370Z,5.37
2023-04-10T11:36:31.197Z,5.43
2023-04-10T11:37:32.774Z,5.53
2023-04-10T11:38:34.621Z,5.10
2023-04-10T11:39:36.583Z,6.10
2023-04-10T11:40:54.469Z,5.30
2023-04-10T11:41:59.300Z,5.27
2023-04-10T11:43:14.952Z,5.27
2023-04-10T11:44:31.670Z,7.07
2023-04-10T11:45:33.245Z,5.37
2023-04-10T11:46:39.750Z,5.30
2023-04-10T11:47:41.653Z,5.37
2023-04-10T11:48:43.232Z,5.07
2023-04-10T11:49:55.746Z,5.60
2023-04-10T11:50:57.755Z,5.37
2023-04-10T11:51:59.278Z,5.07
2023-04-10T11:53:00.844Z,5.50
2023-04-10T11:54:20.312Z,5.37
2023-04-10T11:55:39.062Z,4.60
2023-04-10T11:56:42.501Z,4.53
2023-04-10T11:57:45.469Z,4.20
2023-04-10T11:58:49.958Z,4.53
2023-04-10T11:59:51.849Z,3.97
2023-04-10T12:01:01.291Z,4.33
2023-04-10T12:02:15.931Z,4.10
2023-04-10T12:03:17.875Z,4.30
2023-04-10T12:04:21.521Z,4.10
2023-04-10T12:05:23.196Z,4.17
2023-04-10T12:06:24.931Z,5.47
2023-04-10T12:07:30.298Z,4.10
2023-04-10T12:08:41.668Z,3.53
2023-04-10T12:09:43.565Z,3.60
2023-04-10T12:10:47.006Z,4.80
2023-04-10T12:12:04.168Z,3.57
2023-04-10T12:13:06.658Z,3.63
2023-04-10T12:14:08.259Z,3.93
2023-04-10T12:15:28.965Z,3.60
2023-04-10T12:16:33.087Z,3.70
2023-04-10T12:17:34.712Z,4.13
2023-04-10T12:18:37.379Z,3.43
2023-04-10T12:19:39.734Z,3.53
2023-04-10T12:20:41.628Z,3.50
2023-04-10T12:21:44.053Z,3.37
2023-04-10T12:22:46.896Z,3.20
2023-04-10T12:23:48.487Z,3.83
2023-04-10T12:24:51.842Z,3.57
2023-04-10T12:26:06.724Z,3.37
2023-04-10T12:27:29.421Z,3.60
2023-04-10T12:28:30.995Z,3.50
2023-04-10T12:29:32.672Z,3.60
2023-04-10T12:30:34.257Z,3.43
2023-04-10T12:31:37.237Z,3.03
2023-04-10T12:32:39.719Z,3.37
2023-04-10T12:33:47.387Z,3.70
2023-04-10T12:34:57.891Z,3.60
2023-04-10T12:36:00.024Z,2.93
2023-04-10T12:37:01.652Z,4.03
2023-04-10T12:38:03.420Z,3.60
2023-04-10T12:39:05.696Z,4.03
2023-04-10T12:40:08.222Z,4.93
2023-04-10T12:41:11.403Z,4.17
2023-04-10T12:42:22.606Z,6.20
2023-04-10T12:43:44.793Z,4.77
2023-04-10T12:44:56.170Z,4.50
2023-04-10T12:45:58.025Z,5.20
2023-04-10T12:47:02.492Z,5.57
2023-04-10T12:48:04.207Z,4.40
2023-04-10T12:49:18.859Z,4.63
2023-04-10T12:50:24.304Z,4.43
2023-04-10T12:51:45.830Z,5.10
2023-04-10T12:53:03.470Z,4.43
2023-04-10T12:54:05.007Z,4.00
2023-04-10T12:55:15.667Z,4.10
2023-04-10T12:56:18.310Z,5.60
2023-04-10T12:57:28.890Z,4.37
2023-04-10T12:58:31.689Z,4.07
2023-04-10T12:59:33.687Z,5.07
2023-04-10T13:00:35.645Z,4.03
2023-04-10T13:01:40.590Z,4.40
2023-04-10T13:02:42.871Z,4.57
2023-04-10T13:03:46.703Z,5.40
2023-04-10T13:04:48.405Z,4.30
2023-04-10T13:05:52.070Z,4.07
2023-04-10T13:06:53.749Z,5.13
2023-04-10T13:07:55.294Z,4.73
2023-04-10T13:08:57.173Z,6.93
2023-04-10T13:09:59.756Z,4.50
2023-04-10T13:11:03.539Z,4.30
2023-04-10T13:12:06.878Z,4.27
2023-04-10T13:13:08.399Z,4.83
2023-04-10T13:14:11.115Z,5.00
2023-04-10T13:15:12.626Z,4.00
2023-04-10T13:16:14.217Z,4.33
2023-04-10T13:17:16.155Z,3.97
2023-04-10T13:18:17.878Z,4.67
2023-04-10T13:19:19.396Z,4.43
2023-04-10T13:20:22.330Z,4.47
2023-04-10T13:21:26.957Z,4.33
2023-04-10T13:22:28.510Z,4.20
2023-04-10T13:23:30.298Z,4.43
2023-04-10T13:24:31.811Z,4.23
2023-04-10T13:25:36.438Z,4.40
2023-04-10T13:26:37.972Z,4.20
2023-04-10T13:27:39.493Z,4.20
2023-04-10T13:28:41.008Z,4.40
2023-04-10T13:29:43.325Z,4.60
2023-04-10T13:30:45.296Z,4.30
2023-04-10T13:31:46.917Z,3.90
2023-04-10T13:32:48.636Z,6.47
2023-04-10T13:33:50.345Z,3.90
2023-04-10T13:34:52.384Z,4.20
2023-04-10T13:35:53.988Z,4.20
2023-04-10T13:36:55.710Z,4.13
2023-04-10T13:37:57.277Z,4.10
2023-04-10T13:38:58.916Z,4.43
2023-04-10T13:40:00.536Z,4.23
2023-04-10T13:41:02.112Z,4.53
2023-04-10T13:42:03.714Z,4.10
2023-04-10T13:43:06.456Z,4.60
2023-04-10T13:44:08.154Z,5.70
2023-04-10T13:45:10.032Z,4.30
2023-04-10T13:46:11.582Z,3.27
2023-04-10T13:47:13.186Z,3.63
2023-04-10T13:48:17.643Z,4.00
2023-04-10T13:49:22.168Z,4.23
2023-04-10T13:50:23.911Z,6.43